M I D A S
Marine Information and Data Acquisition System
Tripno 1112 of the Zeeleeuw from 2006-06-08 04:42:34 to 2006-06-08 16:08:28
Back to CruiseResearch ActivitiesStationsMapUnderway DataData graphs

EquipmentUnitsComment
TimeDGPSUTC
LatitudeDGPSDM.mWGS84
LongitudeDGPSDM.mWGS84
HeadingGyrodeg 
SOGDGPSknotsSpeed over ground
COGDGPSdegCourse over ground
DepthEcho soundermeters200 kHz
Missing or incorrect values are displayed as -999
Navigation data collected by the RV Zeeleeuw from 2006-06-08 04:41:17 to 2006-06-08 16:13:21
Time Latitude Longitude Heading SOG COG Depth
2006-06-08 04:42:23 51°13.62 2°56.027 113.8 4.1 293 -999
2006-06-08 04:43:23 51°13.646 2°55.924 120 4 296 -999
2006-06-08 04:44:23 51°13.681 2°55.837 128.4 3.9 306 -999
2006-06-08 04:45:22 51°13.713 2°55.765 121.9 2.1 305 10.8
2006-06-08 04:46:22 51°13.719 2°55.782 71.4 0.3 60 10.8
2006-06-08 04:47:23 51°13.707 2°55.749 58 1.3 241 -999
2006-06-08 04:48:22 51°13.714 2°55.748 25.4 1.3 15 11.1
2006-06-08 04:49:21 51°13.752 2°55.724 325.7 4.4 322 8.6
2006-06-08 04:50:22 51°13.85 2°55.62 334.5 8.8 331 9.5
2006-06-08 04:51:22 51°13.997 2°55.516 341.1 10.1 337 9.7
2006-06-08 04:52:22 51°14.133 2°55.422 339.4 9 335 9.7
2006-06-08 04:53:22 51°14.263 2°55.273 320 10.3 314 9.5
2006-06-08 04:54:22 51°14.372 2°55.049 311.5 11.2 308 9.5
2006-06-08 04:55:22 51°14.526 2°54.841 330.8 12.5 323 8.3
2006-06-08 04:56:22 51°14.699 2°54.652 332.6 12.7 323 8.2
2006-06-08 04:57:22 51°14.859 2°54.432 329.3 12.7 323 8.1
2006-06-08 04:58:22 51°15.034 2°54.258 338.1 12.2 328 5.5
2006-06-08 04:59:22 51°15.207 2°54.08 330.6 12.6 319 7.8
2006-06-08 05:00:22 51°15.366 2°53.857 335.1 12.7 325 8.7
2006-06-08 05:01:22 51°15.541 2°53.667 332 12.8 321 9.2
2006-06-08 05:02:22 51°15.714 2°53.469 337.5 12.7 329 9.8
2006-06-08 05:03:22 51°15.895 2°53.294 336.7 12.8 326 10.3
2006-06-08 05:04:22 51°16.08 2°53.136 345.3 12.6 335 10.8
2006-06-08 05:05:22 51°16.266 2°52.984 342.1 12.6 332 10.9
2006-06-08 05:06:22 51°16.461 2°52.874 348.3 12.4 340 10.8
2006-06-08 05:07:22 51°16.65 2°52.748 345.3 12.3 339 10.1
2006-06-08 05:08:22 51°16.84 2°52.638 347 12 339 8.5
2006-06-08 05:09:22 51°17.028 2°52.531 347.6 12 339 8.6
2006-06-08 05:10:22 51°17.209 2°52.395 346.2 12 339 9.2
2006-06-08 05:11:22 51°17.396 2°52.281 346 12.1 337 9.4
2006-06-08 05:12:22 51°17.579 2°52.148 347.4 12.1 339 9.5
2006-06-08 05:13:22 51°17.766 2°52.029 346.7 12.1 338 9.4
2006-06-08 05:14:21 51°17.949 2°51.912 346.3 12.1 338 9.5
2006-06-08 05:15:22 51°18.138 2°51.781 342.7 12.3 333 10.1
2006-06-08 05:16:22 51°18.325 2°51.649 347.2 12.3 337 11
2006-06-08 05:17:21 51°18.509 2°51.511 346.5 12.4 337 12.1
2006-06-08 05:18:22 51°18.701 2°51.375 345.9 12.4 336 13.2
2006-06-08 05:19:21 51°18.889 2°51.247 346.9 12.5 337 13.8
2006-06-08 05:20:22 51°19.084 2°51.116 348.5 12.5 338 14
2006-06-08 05:21:22 51°19.273 2°50.973 342 12.6 332 13.9
2006-06-08 05:22:22 51°19.463 2°50.832 345.2 12.5 336 12.8
2006-06-08 05:23:22 51°19.652 2°50.692 345.2 12.5 336 11.2
2006-06-08 05:24:22 51°19.841 2°50.552 345.3 12.6 336 12.1
2006-06-08 05:25:22 51°20.032 2°50.414 344.3 12.7 335 14.6
2006-06-08 05:26:22 51°20.223 2°50.269 346.1 12.6 336 15.7
2006-06-08 05:27:22 51°20.414 2°50.13 346.1 12.6 337 18.6
2006-06-08 05:28:22 51°20.607 2°49.994 345.6 12.7 336 21.2
2006-06-08 05:29:22 51°20.8 2°49.85 343.1 12.8 334 22.2
2006-06-08 05:30:22 51°20.993 2°49.706 346.4 12.8 338 22.3
2006-06-08 05:31:22 51°21.189 2°49.577 347.6 12.7 339 21.6
2006-06-08 05:32:22 51°21.385 2°49.449 346.4 12.8 338 21
2006-06-08 05:33:22 51°21.581 2°49.319 346.3 12.7 337 21.5
2006-06-08 05:34:22 51°21.774 2°49.187 345.5 12.7 335 22.6
2006-06-08 05:35:22 51°21.97 2°49.068 349.3 12.6 340 22.3
2006-06-08 05:36:22 51°22.167 2°48.947 347.7 12.7 340 23
2006-06-08 05:37:22 51°22.363 2°48.834 346.9 12.5 338 19.5
2006-06-08 05:38:22 51°22.556 2°48.721 348.3 12.3 339 15.2
2006-06-08 05:39:22 51°22.748 2°48.609 348.2 12.4 340 17.8
2006-06-08 05:40:22 51°22.938 2°48.491 349.7 12.4 340 19
2006-06-08 05:41:22 51°23.129 2°48.368 348.2 12.4 339 18.5
2006-06-08 05:42:22 51°23.322 2°48.248 347.4 12.6 337 20.2
2006-06-08 05:43:22 51°23.516 2°48.128 349.5 12.5 340 19.3
2006-06-08 05:44:22 51°23.711 2°48.008 349.5 12.6 340 19
2006-06-08 05:45:22 51°23.906 2°47.887 346.8 12.6 338 22.5
2006-06-08 05:46:22 51°24.104 2°47.773 349.5 12.7 340 20.9
2006-06-08 05:47:22 51°24.303 2°47.663 350.5 12.6 342 24.4
2006-06-08 05:48:22 51°24.502 2°47.551 348.3 12.7 339 27.8
2006-06-08 05:49:22 51°24.699 2°47.435 348.6 12.6 339 29.5
2006-06-08 05:50:22 51°24.896 2°47.321 347.8 12.5 340 30.1
2006-06-08 05:51:22 51°25.091 2°47.216 348.3 12.4 339 24.5
2006-06-08 05:52:22 51°25.285 2°47.111 349 12.4 341 24.2
2006-06-08 05:53:22 51°25.481 2°47.006 349.1 12.4 340 24.8
2006-06-08 05:54:22 51°25.674 2°46.896 348 12.3 339 24.4
2006-06-08 05:55:22 51°25.865 2°46.786 349.8 12.2 341 22.2
2006-06-08 05:56:21 51°26.055 2°46.679 349.4 12.3 340 24.7
2006-06-08 05:57:22 51°26.252 2°46.566 349.4 12.4 339 22.1
2006-06-08 05:58:22 51°26.446 2°46.453 349.5 12.5 340 26.2
2006-06-08 05:59:22 51°26.641 2°46.338 348.5 12.6 339 29
2006-06-08 06:00:22 51°26.837 2°46.223 348.8 12.6 339 30
2006-06-08 06:01:22 51°27.035 2°46.107 349.7 12.7 340 29.5
2006-06-08 06:02:22 51°27.233 2°45.987 349.7 12.7 340 29
2006-06-08 06:03:22 51°27.432 2°45.873 349.8 12.6 340 28.1
2006-06-08 06:04:22 51°27.629 2°45.757 350.2 12.6 340 27.9
2006-06-08 06:05:22 51°27.825 2°45.639 350.5 12.6 340 27
2006-06-08 06:06:22 51°28.022 2°45.521 349.1 12.6 340 26.8
2006-06-08 06:07:23 51°28.222 2°45.412 349.3 12.5 341 26.9
2006-06-08 06:08:22 51°28.415 2°45.306 350 12.5 341 27.2
2006-06-08 06:09:22 51°28.61 2°45.195 348.6 12.4 340 26.1
2006-06-08 06:10:22 51°28.805 2°45.088 349.2 12.4 341 25.7
2006-06-08 06:11:22 51°28.998 2°44.978 348.7 12.3 341 25.4
2006-06-08 06:12:22 51°29.193 2°44.872 348.9 12.3 340 25.6
2006-06-08 06:13:22 51°29.385 2°44.763 350.3 12.3 342 27.1
2006-06-08 06:14:22 51°29.579 2°44.653 349 12.4 340 27.7
2006-06-08 06:15:22 51°29.771 2°44.53 348.3 12.4 339 31.4
2006-06-08 06:16:22 51°29.964 2°44.409 348.8 12.4 339 31.4
2006-06-08 06:17:22 51°30.155 2°44.295 349.1 12.2 341 32.3
2006-06-08 06:18:22 51°30.347 2°44.18 348.5 12.3 340 33.2
2006-06-08 06:19:21 51°30.537 2°44.067 346.6 12.4 338 30.8
2006-06-08 06:20:22 51°30.733 2°43.952 348.8 12.4 339 29.5
2006-06-08 06:21:22 51°30.926 2°43.835 349.1 12.4 339 32.6
2006-06-08 06:22:22 51°31.119 2°43.719 348.9 12.3 340 33.1
2006-06-08 06:23:22 51°31.31 2°43.6 348.8 12.4 340 31.8
2006-06-08 06:24:21 51°31.498 2°43.482 348.3 12.4 340 31.1
2006-06-08 06:25:22 51°31.694 2°43.362 347.3 12.4 338 23.9
2006-06-08 06:26:22 51°31.887 2°43.245 348.9 12.5 340 25.7
2006-06-08 06:27:22 51°32.082 2°43.132 349.1 12.5 341 27.5
2006-06-08 06:28:22 51°32.277 2°43.019 348 12.5 340 27.7
2006-06-08 06:29:22 51°32.472 2°42.909 348.3 12.4 341 30.2
2006-06-08 06:30:22 51°32.667 2°42.8 348.8 12.4 340 31.1
2006-06-08 06:31:22 51°32.859 2°42.686 348.7 12.3 339 30.7
2006-06-08 06:32:22 51°33.051 2°42.571 348 12.2 340 30.6
2006-06-08 06:33:22 51°33.242 2°42.456 346.9 12.3 338 35.1
2006-06-08 06:34:22 51°33.433 2°42.341 347.7 12.2 339 34.7
2006-06-08 06:35:22 51°33.622 2°42.228 348.1 12.2 339 37.8
2006-06-08 06:36:22 51°33.813 2°42.114 349.2 12.1 340 34.5
2006-06-08 06:37:21 51°33.998 2°42 349.1 12.1 341 37.8
2006-06-08 06:38:22 51°34.191 2°41.886 349 12.1 340 39.2
2006-06-08 06:39:22 51°34.38 2°41.774 349.4 12.1 340 39.7
2006-06-08 06:40:22 51°34.57 2°41.663 349.3 12.1 341 39.7
2006-06-08 06:41:22 51°34.758 2°41.548 348.3 12.1 340 40.5
2006-06-08 06:42:22 51°34.948 2°41.44 348.3 12.1 340 40.2
2006-06-08 06:43:23 51°35.14 2°41.325 349.1 12.2 340 37.5
2006-06-08 06:44:22 51°35.326 2°41.214 347.6 12.1 339 35.4
2006-06-08 06:45:22 51°35.517 2°41.107 348.8 12.2 340 19.4
2006-06-08 06:46:23 51°35.71 2°40.988 348.1 12.3 340 19.5
2006-06-08 06:47:22 51°35.9 2°40.878 347.7 12.4 340 22
2006-06-08 06:48:22 51°36.094 2°40.767 347 12.4 339 21.1
2006-06-08 06:49:22 51°36.287 2°40.655 348.3 12.4 340 22.9
2006-06-08 06:50:22 51°36.481 2°40.545 348 12.4 340 20.4
2006-06-08 06:51:22 51°36.675 2°40.433 347.9 12.4 340 22.1
2006-06-08 06:52:22 51°36.87 2°40.322 347.6 12.4 340 24.4
2006-06-08 06:53:22 51°37.065 2°40.212 347.8 12.5 339 27.6
2006-06-08 06:54:22 51°37.261 2°40.102 347.7 12.4 340 29.6
2006-06-08 06:55:22 51°37.457 2°39.992 348 12.4 340 32.5
2006-06-08 06:56:22 51°37.651 2°39.882 348.8 12.4 340 34.8
2006-06-08 06:57:23 51°37.849 2°39.769 348.6 12.4 341 36.7
2006-06-08 06:58:22 51°38.039 2°39.66 348.3 12.3 341 37.6
2006-06-08 06:59:23 51°38.236 2°39.551 348.8 12.3 342 37.7
2006-06-08 07:00:22 51°38.426 2°39.444 346.9 12.3 341 37.9
2006-06-08 07:01:22 51°38.619 2°39.337 347.6 12.3 340 33.9
2006-06-08 07:02:22 51°38.812 2°39.228 348.3 12.3 340 37.2
2006-06-08 07:03:22 51°39.005 2°39.121 349.1 12.3 341 37.6
2006-06-08 07:04:22 51°39.198 2°39.012 348.6 12.3 341 37
2006-06-08 07:05:21 51°39.388 2°38.903 347 12.2 339 35.5
2006-06-08 07:06:23 51°39.587 2°38.792 347.7 12.3 341 41
2006-06-08 07:07:22 51°39.779 2°38.687 349.1 12.3 341 41.7
2006-06-08 07:08:22 51°39.972 2°38.577 348.3 12.3 340 40.6
2006-06-08 07:09:22 51°40.164 2°38.467 347.5 12.3 340 40.2
2006-06-08 07:10:22 51°40.356 2°38.358 348.6 12.3 341 40.4
2006-06-08 07:11:23 51°40.552 2°38.247 348.1 12.3 340 42.3
2006-06-08 07:12:22 51°40.741 2°38.144 347.6 12.2 340 40.5
2006-06-08 07:13:23 51°40.936 2°38.035 347.6 12.2 340 41.7
2006-06-08 07:14:22 51°41.126 2°37.93 347.6 12.3 341 40.3
2006-06-08 07:15:22 51°41.319 2°37.826 348.3 12.2 341 39.5
2006-06-08 07:16:22 51°41.511 2°37.723 349.1 12.2 343 37.9
2006-06-08 07:17:22 51°41.673 2°37.628 346.2 7.3 338 35.1
2006-06-08 07:18:22 51°41.749 2°37.541 324.2 4.9 311 36
2006-06-08 07:19:22 51°41.802 2°37.462 337.1 4 323 36.5
2006-06-08 07:20:21 51°41.859 2°37.411 346.6 4 335 37
2006-06-08 07:21:21 51°41.915 2°37.367 341.2 3.3 327 36.3
2006-06-08 07:22:22 51°41.942 2°37.302 302.3 2.7 280 24.2
2006-06-08 07:23:22 51°41.934 2°37.271 279.3 0.9 229 32.6
2006-06-08 07:24:21 51°41.926 2°37.241 291.5 2.2 268 32.6
2006-06-08 07:25:23 51°41.953 2°37.201 1.1 2.4 355 33.1
2006-06-08 07:26:22 51°41.975 2°37.268 91.8 4 103 35
2006-06-08 07:27:23 51°41.932 2°37.333 148 2.8 155 35.6
2006-06-08 07:28:21 51°41.918 2°37.335 176.5 0.7 179 36.1
2006-06-08 07:29:23 51°41.914 2°37.333 184.3 0.6 350 -999
2006-06-08 07:30:23 51°41.934 2°37.331 185 1.6 358 -999
2006-06-08 07:31:22 51°41.953 2°37.328 182.1 0.2 286 29.2
2006-06-08 07:32:23 51°41.951 2°37.321 170.9 0.3 236 30.2
2006-06-08 07:33:22 51°41.946 2°37.313 168.1 0.3 197 26.1
2006-06-08 07:34:23 51°41.94 2°37.304 167.8 0.5 218 22.3
2006-06-08 07:35:23 51°41.932 2°37.295 169.6 0.6 213 28
2006-06-08 07:36:23 51°41.922 2°37.289 171.3 0.7 201 28
2006-06-08 07:37:21 51°41.91 2°37.283 174.2 0.8 195 29.7
2006-06-08 07:38:22 51°41.898 2°37.276 177.6 0.8 195 33.6
2006-06-08 07:39:22 51°41.885 2°37.271 182.2 0.9 200 32.8
2006-06-08 07:40:22 51°41.86 2°37.271 161.4 2.2 168 33.3
2006-06-08 07:41:23 51°41.831 2°37.315 100.9 2.5 112 35.6
2006-06-08 07:42:23 51°41.839 2°37.371 41.1 2.1 48 34.5
2006-06-08 07:43:21 51°41.871 2°37.368 340.8 2.5 326 34.8
2006-06-08 07:44:23 51°41.898 2°37.314 315.8 2.2 298 32.7
2006-06-08 07:45:22 51°41.909 2°37.278 328.5 1 303 29.2
2006-06-08 07:46:22 51°41.915 2°37.261 338.4 0.6 303 31.8
2006-06-08 07:47:22 51°41.919 2°37.248 332.6 0.6 286 31.9
2006-06-08 07:48:22 51°41.919 2°37.235 323.5 0.4 275 33
2006-06-08 07:49:22 51°41.915 2°37.22 315.3 0.5 245 31.9
2006-06-08 07:50:23 51°41.909 2°37.206 306.2 0.7 235 32.1
2006-06-08 07:51:22 51°41.902 2°37.193 298 0.8 218 31.9
2006-06-08 07:52:23 51°41.893 2°37.181 290.5 0.7 215 31.7
2006-06-08 07:53:23 51°41.881 2°37.186 290.7 1.2 142 30.1
2006-06-08 07:54:23 51°41.868 2°37.193 296.7 0.6 200 32.6
2006-06-08 07:55:22 51°41.866 2°37.17 319 1 294 32.1
2006-06-08 07:56:23 51°41.87 2°37.155 354.8 0.7 200 31.4
2006-06-08 07:57:23 51°41.868 2°37.154 17.5 0.4 25 31
2006-06-08 07:58:23 51°41.88 2°37.182 51.5 1.8 60 30.6
2006-06-08 07:59:22 51°41.896 2°37.232 59.7 1.3 79 31.7
2006-06-08 08:00:23 51°41.892 2°37.249 72.4 0.7 104 32
2006-06-08 08:01:21 51°41.888 2°37.268 66.1 0.7 87 33.5
2006-06-08 08:02:22 51°41.888 2°37.288 57.3 0.6 86 34.1
2006-06-08 08:03:22 51°41.886 2°37.302 50.5 0.5 106 33.6
2006-06-08 08:04:22 51°41.883 2°37.311 43.5 0.3 114 34.2
2006-06-08 08:05:22 51°41.882 2°37.323 39.9 0.3 115 34.5
2006-06-08 08:06:23 51°41.882 2°37.333 38.1 0.3 105 34.7
2006-06-08 08:07:22 51°41.88 2°37.34 36.2 0.3 89 34.6
2006-06-08 08:08:22 51°41.88 2°37.35 34.9 0.4 77 35.1
2006-06-08 08:09:23 51°41.88 2°37.358 35.3 0.3 103 35.7
2006-06-08 08:10:22 51°41.88 2°37.368 36.5 0.3 88 36.1
2006-06-08 08:11:22 51°41.88 2°37.376 36.8 0.3 79 36.1
2006-06-08 08:12:22 51°41.881 2°37.387 37 0.4 84 36.4
2006-06-08 08:13:23 51°41.882 2°37.397 36.4 0.3 73 36.7
2006-06-08 08:14:23 51°41.884 2°37.407 36.8 0.4 75 36.4
2006-06-08 08:15:22 51°41.886 2°37.417 37.7 0.4 72 35.3
2006-06-08 08:16:23 51°41.888 2°37.427 38.7 0.4 74 34.6
2006-06-08 08:17:22 51°41.89 2°37.438 40.6 0.5 81 33.6
2006-06-08 08:18:22 51°41.891 2°37.449 43.3 0.4 86 34.4
2006-06-08 08:19:23 51°41.893 2°37.46 45.6 0.5 81 33.8
2006-06-08 08:20:22 51°41.894 2°37.471 45.9 0.4 80 34.8
2006-06-08 08:21:22 51°41.896 2°37.482 47.1 0.4 72 34.9
2006-06-08 08:22:23 51°41.896 2°37.494 49.3 0.4 88 35.9
2006-06-08 08:23:22 51°41.898 2°37.506 52.2 0.5 83 34.4
2006-06-08 08:24:23 51°41.899 2°37.519 54.4 0.6 88 34.9
2006-06-08 08:25:22 51°41.899 2°37.532 57.2 0.5 90 35
2006-06-08 08:26:23 51°41.899 2°37.546 59.3 0.5 88 35.4
2006-06-08 08:27:23 51°41.9 2°37.56 60.5 0.4 96 35.8
2006-06-08 08:28:22 51°41.9 2°37.574 60.8 0.5 85 36.7
2006-06-08 08:29:22 51°41.902 2°37.589 60.3 0.6 81 37
2006-06-08 08:30:22 51°41.903 2°37.604 60.7 0.6 91 36.9
2006-06-08 08:31:23 51°41.904 2°37.619 62.1 0.6 81 36.5
2006-06-08 08:32:23 51°41.907 2°37.634 63.2 0.6 81 36.8
2006-06-08 08:33:23 51°41.909 2°37.65 64.5 0.6 76 37.3
2006-06-08 08:34:22 51°41.91 2°37.666 66.7 0.7 87 37.4
2006-06-08 08:35:23 51°41.912 2°37.683 69.6 0.6 81 37.7
2006-06-08 08:36:23 51°41.913 2°37.698 72.2 0.6 77 38.3
2006-06-08 08:37:23 51°41.914 2°37.716 75.2 0.6 86 38.2
2006-06-08 08:38:23 51°41.915 2°37.734 76.9 0.9 79 39.2
2006-06-08 08:39:22 51°41.944 2°37.773 12.7 3 13 37.2
2006-06-08 08:40:22 51°41.985 2°37.725 293.9 3.7 290 37.9
2006-06-08 08:41:22 51°41.991 2°37.605 266.3 5 261 34.6
2006-06-08 08:42:22 51°41.976 2°37.464 264.6 5.3 260 38.2
2006-06-08 08:43:23 51°41.953 2°37.376 243.6 2.2 235 34.6
2006-06-08 08:44:23 51°41.946 2°37.371 218.8 0.4 168 36.4
2006-06-08 08:45:23 51°41.939 2°37.375 205.4 0.5 158 36.2
2006-06-08 08:46:22 51°41.932 2°37.382 192.6 0.5 141 35.4
2006-06-08 08:47:22 51°41.926 2°37.389 183.9 0.5 141 36.4
2006-06-08 08:48:22 51°41.919 2°37.397 178.7 0.5 141 37.1
2006-06-08 08:49:22 51°41.912 2°37.406 175.9 0.6 133 36
2006-06-08 08:50:23 51°41.906 2°37.416 173.7 0.5 140 34.5
2006-06-08 08:51:23 51°41.899 2°37.427 171.2 0.6 123 33.8
2006-06-08 08:52:22 51°41.893 2°37.439 168.3 0.6 129 33.8
2006-06-08 08:53:22 51°41.888 2°37.451 166.9 0.6 125 34
2006-06-08 08:54:23 51°41.883 2°37.464 166.8 0.6 120 34.4
2006-06-08 08:55:23 51°41.878 2°37.477 169.1 0.5 119 34.8
2006-06-08 08:56:23 51°41.873 2°37.49 172.9 0.6 113 35
2006-06-08 08:57:23 51°41.87 2°37.501 177.1 0.5 122 36.5
2006-06-08 08:58:23 51°41.866 2°37.512 182.5 0.4 122 37.7
2006-06-08 08:59:21 51°41.863 2°37.523 188.7 0.4 118 37.6
2006-06-08 09:00:22 51°41.86 2°37.533 195.8 0.4 108 38.3
2006-06-08 09:01:23 51°41.856 2°37.541 202.7 0.5 156 38.4
2006-06-08 09:02:21 51°41.84 2°37.527 233.8 1.7 227 38.1
2006-06-08 09:03:23 51°41.831 2°37.474 273.7 2.3 274 36.8
2006-06-08 09:04:23 51°41.848 2°37.41 296.8 2.9 299 37.2
2006-06-08 09:05:22 51°41.876 2°37.337 298.6 3.4 301 35.1
2006-06-08 09:06:22 51°41.905 2°37.255 296.8 3.6 300 33.1
2006-06-08 09:07:22 51°41.944 2°37.193 333 3 341 33.2
2006-06-08 09:08:22 51°41.977 2°37.19 2 0.7 30 35
2006-06-08 09:09:22 51°41.982 2°37.2 7.6 0.4 79 34.9
2006-06-08 09:10:22 51°41.984 2°37.212 11.2 0.5 65 -999
2006-06-08 09:11:23 51°42.001 2°37.222 350.4 1.7 6 31.6
2006-06-08 09:12:23 51°42.027 2°37.215 316.5 1.4 339 32.8
2006-06-08 09:13:23 51°42.04 2°37.183 270.8 1.8 273 32.7
2006-06-08 09:14:22 51°42.018 2°37.148 208.3 2.3 192 32.9
2006-06-08 09:15:22 51°41.978 2°37.175 150.5 3.1 136 34.3
2006-06-08 09:16:21 51°41.946 2°37.25 127 3.4 118 34.5
2006-06-08 09:17:22 51°41.93 2°37.297 160.7 0.8 70 29.8
2006-06-08 09:18:23 51°41.935 2°37.317 168.8 0.8 76 -999
2006-06-08 09:19:21 51°41.938 2°37.336 170.6 0.7 78 36.3
2006-06-08 09:20:23 51°41.94 2°37.356 172.8 0.7 81 36.6
2006-06-08 09:21:22 51°41.943 2°37.372 175.5 0.5 74 36.5
2006-06-08 09:22:22 51°41.944 2°37.389 178.5 0.6 105 36.7
2006-06-08 09:23:23 51°41.927 2°37.39 220.1 1.7 211 35.6
2006-06-08 09:24:22 51°41.922 2°37.34 281.3 2.4 291 36.7
2006-06-08 09:25:23 51°41.944 2°37.297 303.1 1.8 317 33.4
2006-06-08 09:26:22 51°41.962 2°37.281 310.6 1 342 35.6
2006-06-08 09:27:22 51°41.978 2°37.275 315.1 0.9 352 35.3
2006-06-08 09:28:23 51°41.994 2°37.273 318.4 1.1 350 33
2006-06-08 09:29:22 51°42.009 2°37.244 269.3 1.8 280 31.9
2006-06-08 09:30:23 51°41.984 2°37.208 202.6 2.7 184 35.3
2006-06-08 09:31:22 51°41.943 2°37.242 153 2.2 134 34.3
2006-06-08 09:32:22 51°41.94 2°37.266 155 0.8 79 33.9
2006-06-08 09:33:22 51°41.941 2°37.287 158.6 0.8 86 34.3
2006-06-08 09:34:22 51°41.942 2°37.31 161.4 0.8 86 28.3
2006-06-08 09:35:22 51°41.944 2°37.331 163.5 0.8 90 35.9
2006-06-08 09:36:22 51°41.944 2°37.353 167.6 0.7 90 36.5
2006-06-08 09:37:22 51°41.945 2°37.373 173.1 0.7 87 36.7
2006-06-08 09:38:22 51°41.923 2°37.389 187.8 3.1 177 36.7
2006-06-08 09:39:23 51°41.802 2°37.388 185.1 9.2 179 35.4
2006-06-08 09:40:21 51°41.617 2°37.375 189.2 12.4 185 38.5
2006-06-08 09:41:23 51°41.406 2°37.312 196.4 12.4 192 34.1
2006-06-08 09:42:23 51°41.204 2°37.247 193.7 12.4 190 37.5
2006-06-08 09:43:22 51°41.003 2°37.185 195.9 12.4 192 38
2006-06-08 09:44:23 51°40.797 2°37.119 194.6 12.4 191 37.9
2006-06-08 09:45:22 51°40.598 2°37.052 195.1 12.4 191 38.8
2006-06-08 09:46:22 51°40.395 2°36.987 194.6 12.5 189 36.2
2006-06-08 09:47:22 51°40.188 2°36.958 187.2 12.5 183 38.6
2006-06-08 09:48:22 51°39.983 2°36.929 188.8 12.4 185 38.6
2006-06-08 09:49:22 51°39.777 2°36.897 190.8 12.3 186 39.3
2006-06-08 09:50:22 51°39.572 2°36.87 190 12.3 186 40.6
2006-06-08 09:51:22 51°39.369 2°36.834 190.2 12.2 186 42.2
2006-06-08 09:52:22 51°39.166 2°36.8 191.3 12.3 186 41.2
2006-06-08 09:53:21 51°38.965 2°36.773 190.6 12.2 186 40.8
2006-06-08 09:54:22 51°38.759 2°36.74 190.3 12.3 186 40.8
2006-06-08 09:55:22 51°38.556 2°36.71 189.4 12.2 185 41.5
2006-06-08 09:56:22 51°38.352 2°36.676 190.6 12.3 186 42.1
2006-06-08 09:57:23 51°38.146 2°36.64 190.4 12.3 186 41.3
2006-06-08 09:58:21 51°37.949 2°36.611 190.3 12.3 186 40.8
2006-06-08 09:59:22 51°37.741 2°36.578 189.8 12.4 185 40.6
2006-06-08 10:00:23 51°37.533 2°36.549 190.5 12.4 186 40.7
2006-06-08 10:01:22 51°37.332 2°36.522 188.9 12.3 185 40.4
2006-06-08 10:02:21 51°37.13 2°36.492 189.9 12.4 186 39.2
2006-06-08 10:03:21 51°36.925 2°36.46 187.9 12.4 185 40
2006-06-08 10:04:21 51°36.721 2°36.428 189.3 12.3 185 38.5
2006-06-08 10:05:22 51°36.513 2°36.398 189.5 12.3 185 39.6
2006-06-08 10:06:23 51°36.305 2°36.368 189.4 12.4 186 39.5
2006-06-08 10:07:21 51°36.108 2°36.34 189.3 12.2 184 39.1
2006-06-08 10:08:22 51°35.901 2°36.313 190.6 12.2 186 37.6
2006-06-08 10:09:23 51°35.694 2°36.279 190.4 12.2 185 36.2
2006-06-08 10:10:21 51°35.499 2°36.25 188.7 12.2 184 36.6
2006-06-08 10:11:21 51°35.297 2°36.219 189.3 12.2 184 35.6
2006-06-08 10:12:22 51°35.091 2°36.192 190.7 12.2 185 33.8
2006-06-08 10:13:23 51°34.886 2°36.164 188.4 12.3 183 34.6
2006-06-08 10:14:22 51°34.687 2°36.136 189.2 12.2 184 32.8
2006-06-08 10:15:21 51°34.488 2°36.102 190.5 12.3 186 33.7
2006-06-08 10:16:23 51°34.277 2°36.067 190.8 12.3 186 31.6
2006-06-08 10:17:21 51°34.08 2°36.035 190 12.3 186 33.3
2006-06-08 10:18:23 51°33.869 2°36 189.7 12.3 185 34.3
2006-06-08 10:19:22 51°33.669 2°35.964 190.2 12.4 184 33.8
2006-06-08 10:20:22 51°33.465 2°35.931 192.4 12.3 189 36.6
2006-06-08 10:21:22 51°33.266 2°35.87 194.9 12.2 190 38.1
2006-06-08 10:22:22 51°33.067 2°35.803 195.8 12.2 192 37.9
2006-06-08 10:23:23 51°32.864 2°35.739 195.2 12.3 191 38.6
2006-06-08 10:24:22 51°32.667 2°35.678 195.8 12.1 192 38.3
2006-06-08 10:25:23 51°32.463 2°35.615 196 12.3 192 39.2
2006-06-08 10:26:23 51°32.262 2°35.553 196.2 12.3 192 39.2
2006-06-08 10:27:23 51°32.064 2°35.479 200.2 12.3 197 39.7
2006-06-08 10:28:22 51°31.869 2°35.396 198.6 12.3 195 40.7
2006-06-08 10:29:22 51°31.673 2°35.306 199 12.2 196 39.2
2006-06-08 10:30:21 51°31.478 2°35.221 200.1 12.3 196 37.9
2006-06-08 10:31:23 51°31.274 2°35.13 198.6 12.2 195 39.2
2006-06-08 10:32:23 51°31.082 2°35.021 206.9 12.2 203 38.4
2006-06-08 10:33:23 51°30.896 2°34.895 207 12.2 203 37.1
2006-06-08 10:34:22 51°30.71 2°34.775 206.3 12.2 203 37.3
2006-06-08 10:35:22 51°30.52 2°34.655 204.3 12.3 200 37.1
2006-06-08 10:36:23 51°30.328 2°34.53 206.1 12.3 203 36.7
2006-06-08 10:37:22 51°30.14 2°34.414 205.4 12.3 202 35.6
2006-06-08 10:38:22 51°29.951 2°34.292 203.8 12.3 200 35.3
2006-06-08 10:39:21 51°29.764 2°34.181 205.4 12.2 200 34.6
2006-06-08 10:40:21 51°29.576 2°34.063 205.5 12.2 200 33.7
2006-06-08 10:41:23 51°29.378 2°33.947 206.3 12.2 202 37.2
2006-06-08 10:42:22 51°29.191 2°33.837 206 12.3 202 37.5
2006-06-08 10:43:23 51°28.998 2°33.717 204.8 12.2 200 34.2
2006-06-08 10:44:23 51°28.808 2°33.603 206.2 12.3 201 38.3
2006-06-08 10:45:21 51°28.623 2°33.494 206.3 12.2 201 39.1
2006-06-08 10:46:22 51°28.434 2°33.363 209.4 12.1 205 36.6
2006-06-08 10:47:23 51°28.245 2°33.234 208 12.2 203 37.7
2006-06-08 10:48:23 51°28.061 2°33.101 208.1 12.1 204 37.1
2006-06-08 10:49:23 51°27.879 2°32.966 208.9 12.1 205 37
2006-06-08 10:50:23 51°27.694 2°32.837 208.6 12 204 36.3
2006-06-08 10:51:23 51°27.513 2°32.704 207.7 12 204 34.7
2006-06-08 10:52:23 51°27.333 2°32.569 209.7 11.9 206 35.3
2006-06-08 10:53:22 51°27.158 2°32.433 208 11.7 204 35
2006-06-08 10:54:22 51°26.984 2°32.295 212.2 11.6 210 34.4
2006-06-08 10:55:23 51°26.815 2°32.142 212 11.5 209 34.4
2006-06-08 10:56:23 51°26.646 2°31.998 213.3 11.5 210 34.6
2006-06-08 10:57:23 51°26.48 2°31.851 211.6 11.5 208 34.4
2006-06-08 10:58:22 51°26.317 2°31.706 212.9 11.3 209 34.4
2006-06-08 10:59:23 51°26.146 2°31.567 210.1 11.3 205 34.8
2006-06-08 11:00:23 51°25.975 2°31.435 210.1 11.4 206 34.8
2006-06-08 11:01:23 51°25.808 2°31.298 211.1 11.3 208 34.4
2006-06-08 11:02:22 51°25.64 2°31.17 209.7 11.2 207 34.9
2006-06-08 11:03:23 51°25.469 2°31.037 210.2 11.3 206 34.4
2006-06-08 11:04:23 51°25.301 2°30.908 210.8 11.2 207 34.9
2006-06-08 11:05:23 51°25.131 2°30.783 208.8 11.3 205 35.4
2006-06-08 11:06:23 51°24.96 2°30.659 208.3 11.2 205 35.4
2006-06-08 11:07:21 51°24.799 2°30.528 210.8 11.3 205 35.6
2006-06-08 11:08:23 51°24.622 2°30.394 210.6 11.3 207 34.5
2006-06-08 11:09:23 51°24.452 2°30.259 209.3 11.4 205 34.5
2006-06-08 11:10:23 51°24.277 2°30.138 209.2 11.6 205 35.3
2006-06-08 11:11:23 51°24.103 2°30.011 209.1 11.5 205 34.9
2006-06-08 11:12:23 51°23.959 2°29.904 208.8 6.7 202 34.6
2006-06-08 11:13:23 51°23.875 2°29.859 207.4 4.9 199 34.6
2006-06-08 11:14:23 51°23.803 2°29.811 210.4 4.2 199 34.6
2006-06-08 11:15:23 51°23.759 2°29.787 211.5 2.1 194 34.6
2006-06-08 11:16:22 51°23.743 2°29.794 201.8 1 71 33.8
2006-06-08 11:17:23 51°23.734 2°29.81 207.5 1.1 167 31.1
2006-06-08 11:18:23 51°23.726 2°29.822 206.6 0.7 126 35.3
2006-06-08 11:19:23 51°23.724 2°29.838 204 0.7 96 35.2
2006-06-08 11:20:22 51°23.724 2°29.858 201.9 0.9 80 35.1
2006-06-08 11:21:21 51°23.718 2°29.867 222.3 0.9 210 34.9
2006-06-08 11:22:23 51°23.721 2°29.824 278.2 2.5 304 35.2
2006-06-08 11:23:23 51°23.749 2°29.801 281.6 1.6 44 34.5
2006-06-08 11:24:22 51°23.76 2°29.798 239.4 0.6 266 34.2
2006-06-08 11:25:23 51°23.751 2°29.797 211 0.8 183 34.4
2006-06-08 11:26:22 51°23.745 2°29.794 230.8 0.1 231 34
2006-06-08 11:27:22 51°23.746 2°29.795 226.8 0.2 59 34
2006-06-08 11:28:22 51°23.746 2°29.805 215.2 0.4 102 34.6
2006-06-08 11:29:22 51°23.746 2°29.815 214.6 0.5 90 34
2006-06-08 11:30:23 51°23.747 2°29.831 208.3 0.7 81 35
2006-06-08 11:31:22 51°23.751 2°29.85 205.8 0.8 72 34.9
2006-06-08 11:32:23 51°23.756 2°29.871 204.6 0.8 66 34.8
2006-06-08 11:33:23 51°23.756 2°29.884 217.7 0.7 200 34.8
2006-06-08 11:34:22 51°23.752 2°29.851 265.2 1.7 293 34.8
2006-06-08 11:35:23 51°23.756 2°29.814 235.1 1.2 242 34.5
2006-06-08 11:36:23 51°23.738 2°29.788 218.8 1.4 205 34.1
2006-06-08 11:37:22 51°23.726 2°29.793 201.5 0.7 134 29.8
2006-06-08 11:38:22 51°23.721 2°29.812 193.1 0.9 105 35
2006-06-08 11:39:23 51°23.719 2°29.837 185.7 1 92 34.9
2006-06-08 11:40:23 51°23.721 2°29.866 180.7 1.1 81 34.9
2006-06-08 11:41:23 51°23.707 2°29.873 224.4 1.5 227 34.8
2006-06-08 11:42:23 51°23.721 2°29.815 292.5 2.9 317 35.1
2006-06-08 11:43:23 51°23.753 2°29.789 296.6 1.3 36 34.3
2006-06-08 11:44:23 51°23.773 2°29.807 298.7 1.3 12 34.4
2006-06-08 11:45:22 51°23.791 2°29.797 257.2 0.9 316 34.3
2006-06-08 11:46:23 51°23.787 2°29.791 206.8 1 168 34.2
2006-06-08 11:47:23 51°23.767 2°29.799 195.6 1.2 156 34.1
2006-06-08 11:48:22 51°23.751 2°29.804 216.2 0.8 181 34.1
2006-06-08 11:49:23 51°23.741 2°29.808 209.4 0.6 140 34.1
2006-06-08 11:50:22 51°23.735 2°29.821 203.9 0.6 111 34.8
2006-06-08 11:51:23 51°23.734 2°29.838 199.9 0.6 89 35
2006-06-08 11:52:21 51°23.736 2°29.857 193.9 0.9 81 34.7
2006-06-08 11:53:23 51°23.735 2°29.88 194 0.8 117 34.5
2006-06-08 11:54:21 51°23.724 2°29.888 217.7 0.8 194 34
2006-06-08 11:55:23 51°23.715 2°29.866 244.2 1.2 259 34.6
2006-06-08 11:56:23 51°23.721 2°29.824 270.1 1.9 295 34.9
2006-06-08 11:57:22 51°23.741 2°29.779 284.8 2 318 33.9
2006-06-08 11:58:23 51°23.771 2°29.762 307.5 1.8 358 33.8
2006-06-08 11:59:22 51°23.8 2°29.77 326.6 1.7 12 33.8
2006-06-08 12:00:23 51°23.831 2°29.774 312.5 2.1 348 34.3
2006-06-08 12:01:23 51°23.847 2°29.733 246.4 1.6 256 34.6
2006-06-08 12:02:23 51°23.82 2°29.731 179.6 2.4 146 34.4
2006-06-08 12:03:22 51°23.787 2°29.802 153.9 4 130 34.1
2006-06-08 12:04:23 51°23.746 2°29.875 171.1 2.9 146 34.1
2006-06-08 12:05:23 51°23.717 2°29.875 226.9 1.2 222 34.4
2006-06-08 12:06:22 51°23.721 2°29.837 278.5 1.9 307 34.7
2006-06-08 12:07:23 51°23.743 2°29.806 288 1.5 333 33.9
2006-06-08 12:08:23 51°23.765 2°29.81 310.6 1.3 10 34.1
2006-06-08 12:09:22 51°23.787 2°29.819 319.1 1.4 17 34.1
2006-06-08 12:10:22 51°23.811 2°29.832 325.2 1.5 18 34
2006-06-08 12:11:23 51°23.84 2°29.828 295.6 2.1 327 34.1
2006-06-08 12:12:23 51°23.841 2°29.788 224.3 1.7 215 33.9
2006-06-08 12:13:23 51°23.81 2°29.788 202.6 1.8 178 33.8
2006-06-08 12:14:23 51°23.78 2°29.787 202.5 1.6 180 34.1
2006-06-08 12:15:23 51°23.757 2°29.788 211.1 1.2 187 33.9
2006-06-08 12:16:22 51°23.742 2°29.79 207 0.7 162 33.3
2006-06-08 12:17:23 51°23.739 2°29.8 211.7 0.3 87 32.6
2006-06-08 12:18:23 51°23.741 2°29.81 215.5 0.4 69 29.7
2006-06-08 12:19:23 51°23.745 2°29.82 214.9 0.5 54 30.3
2006-06-08 12:20:23 51°23.749 2°29.832 212 0.6 62 34.4
2006-06-08 12:21:23 51°23.755 2°29.845 207.1 0.6 63 34.1
2006-06-08 12:22:23 51°23.754 2°29.861 185.3 1 124 34.1
2006-06-08 12:23:23 51°23.739 2°29.919 123.4 3.8 99 34
2006-06-08 12:24:23 51°23.774 2°30.027 43.1 5.1 37 34.3
2006-06-08 12:25:22 51°23.847 2°30.028 319.1 4.2 328 34.2
2006-06-08 12:26:23 51°23.865 2°29.934 260.6 4.2 268 33.8
2006-06-08 12:27:23 51°23.839 2°29.822 236.9 4.5 236 33.7
2006-06-08 12:28:23 51°23.797 2°29.77 208.3 2.5 198 33.6
2006-06-08 12:29:23 51°23.765 2°29.764 202.8 1.6 183 33.4
2006-06-08 12:30:23 51°23.742 2°29.779 175.1 1.4 131 33.5
2006-06-08 12:31:23 51°23.742 2°29.805 157.4 1 83 33.4
2006-06-08 12:32:22 51°23.746 2°29.834 146.5 1.1 76 34.5
2006-06-08 12:33:23 51°23.751 2°29.865 142.1 1.2 72 34.1
2006-06-08 12:34:23 51°23.757 2°29.894 141.6 1.1 72 34.2
2006-06-08 12:35:23 51°23.763 2°29.921 141.8 1 69 34.4
2006-06-08 12:36:23 51°23.77 2°29.946 139.1 1 65 34.2
2006-06-08 12:37:23 51°23.777 2°29.974 132.8 1.6 86 34.1
2006-06-08 12:38:23 51°23.792 2°30.052 66.7 3.9 56 34
2006-06-08 12:39:23 51°23.861 2°30.085 340.8 4.9 344 33.6
2006-06-08 12:40:23 51°23.9 2°29.992 262 4.4 268 33.8
2006-06-08 12:41:23 51°23.877 2°29.854 248.8 5.9 249 33.6
2006-06-08 12:42:23 51°23.829 2°29.748 217 3.8 210 33.9
2006-06-08 12:43:23 51°23.775 2°29.736 187.6 3 172 33.6
2006-06-08 12:44:22 51°23.74 2°29.765 163.6 2 134 33.8
2006-06-08 12:45:23 51°23.738 2°29.793 145.1 0.9 58 31
2006-06-08 12:46:23 51°23.747 2°29.815 139.8 1 59 30.3
2006-06-08 12:47:23 51°23.754 2°29.838 135.8 1 62 34.1
2006-06-08 12:48:23 51°23.762 2°29.86 134.1 0.9 64 34
2006-06-08 12:49:23 51°23.769 2°29.883 132.2 0.9 64 34.2
2006-06-08 12:50:23 51°23.776 2°29.906 129.4 0.9 61 33.7
2006-06-08 12:51:23 51°23.784 2°29.928 125.3 0.9 61 33.5
2006-06-08 12:52:23 51°23.792 2°29.948 120.6 1 54 34
2006-06-08 12:53:23 51°23.801 2°29.968 117.6 0.9 57 33.8
2006-06-08 12:54:23 51°23.809 2°29.988 117.2 0.8 58 33.5
2006-06-08 12:55:23 51°23.817 2°30.007 118.3 0.8 59 33.6
2006-06-08 12:56:23 51°23.824 2°30.024 119.4 0.8 55 33.7
2006-06-08 12:57:23 51°23.832 2°30.042 120.6 0.8 56 33.8
2006-06-08 12:58:22 51°23.839 2°30.059 122.1 0.8 54 33.7
2006-06-08 12:59:23 51°23.847 2°30.076 123.3 0.7 57 33.6
2006-06-08 13:00:23 51°23.854 2°30.092 126.7 0.7 52 33.6
2006-06-08 13:01:23 51°23.842 2°30.123 167.7 2.1 152 33.9
2006-06-08 13:02:23 51°23.812 2°30.096 240.2 2.7 247 33.8
2006-06-08 13:03:23 51°23.806 2°30.002 260.6 4.1 265 33.3
2006-06-08 13:04:23 51°23.798 2°29.898 260.1 3.3 267 33.7
2006-06-08 13:05:23 51°23.799 2°29.86 238 0.4 281 33.1
2006-06-08 13:06:23 51°23.8 2°29.854 225.8 0.1 266 33.1
2006-06-08 13:07:23 51°23.8 2°29.852 225.1 0.1 347 33.2
2006-06-08 13:08:23 51°23.802 2°29.853 226.1 0.1 27 33.2
2006-06-08 13:09:23 51°23.804 2°29.855 227.8 0.2 20 33.3
2006-06-08 13:10:23 51°23.806 2°29.857 230.7 0.2 35 33.3
2006-06-08 13:11:23 51°23.81 2°29.86 234.5 0.3 21 33.3
2006-06-08 13:12:22 51°23.814 2°29.862 238.9 0.3 19 33.3
2006-06-08 13:13:23 51°23.819 2°29.865 243.3 0.3 15 33.3
2006-06-08 13:14:23 51°23.825 2°29.868 247.8 0.3 19 33.3
2006-06-08 13:15:23 51°23.831 2°29.87 252.1 0.4 11 33.2
2006-06-08 13:16:22 51°23.837 2°29.872 257.8 0.4 15 33
2006-06-08 13:17:23 51°23.844 2°29.875 263.7 0.4 9 33.1
2006-06-08 13:18:23 51°23.851 2°29.877 269.7 0.4 9 33
2006-06-08 13:19:23 51°23.859 2°29.88 275.8 0.5 11 33.1
2006-06-08 13:20:23 51°23.867 2°29.883 281.4 0.6 9 33
2006-06-08 13:21:23 51°23.875 2°29.886 286.7 0.5 10 32.8
2006-06-08 13:22:23 51°23.883 2°29.889 291.7 0.5 13 32.8
2006-06-08 13:23:23 51°23.891 2°29.893 295.6 0.5 13 32.9
2006-06-08 13:24:23 51°23.9 2°29.896 299.5 0.6 16 33.3
2006-06-08 13:25:23 51°23.909 2°29.899 303.3 0.5 17 33.3
2006-06-08 13:26:23 51°23.918 2°29.899 301.6 0.8 336 33.4
2006-06-08 13:27:23 51°23.926 2°29.868 256 1.8 265 32.5
2006-06-08 13:28:23 51°23.89 2°29.838 192.3 3.3 186 33.2
2006-06-08 13:29:23 51°23.842 2°29.84 187.5 2.2 181 33
2006-06-08 13:30:23 51°23.827 2°29.838 213.3 0.5 200 33
2006-06-08 13:31:23 51°23.821 2°29.833 219.1 0.3 216 33
2006-06-08 13:32:23 51°23.817 2°29.829 222.3 0.2 216 32.9
2006-06-08 13:33:23 51°23.817 2°29.827 225.8 0.1 335 32.9
2006-06-08 13:34:22 51°23.818 2°29.826 230.8 0.1 305 33
2006-06-08 13:35:23 51°23.82 2°29.823 234.7 0.1 311 32.8
2006-06-08 13:36:23 51°23.822 2°29.82 237.4 0.1 306 32.9
2006-06-08 13:37:23 51°23.823 2°29.817 240.1 0.2 310 32.8
2006-06-08 13:38:23 51°23.825 2°29.814 242.6 0.2 310 32.9
2006-06-08 13:39:23 51°23.827 2°29.81 245.7 0.2 310 33
2006-06-08 13:40:23 51°23.829 2°29.806 248.7 0.2 293 32.9
2006-06-08 13:41:23 51°23.831 2°29.801 252.6 0.2 307 33
2006-06-08 13:42:23 51°23.834 2°29.796 256.8 0.2 298 32.9
2006-06-08 13:43:23 51°23.836 2°29.79 261.2 0.3 308 32.9
2006-06-08 13:44:23 51°23.84 2°29.784 265.6 0.3 312 32.8
2006-06-08 13:45:23 51°23.844 2°29.778 270.7 0.3 321 33
2006-06-08 13:46:22 51°23.848 2°29.772 276.2 0.4 314 33.2
2006-06-08 13:47:23 51°23.852 2°29.765 282.5 0.4 324 33.2
2006-06-08 13:48:23 51°23.858 2°29.753 285.9 1 295 33.4
2006-06-08 13:49:23 51°23.866 2°29.715 275.8 1.7 282 33.5
2006-06-08 13:50:23 51°23.869 2°29.671 264.1 1.6 272 33.3
2006-06-08 13:51:23 51°23.869 2°29.635 257.8 1.2 266 33.3
2006-06-08 13:52:23 51°23.868 2°29.606 259.1 1 267 33
2006-06-08 13:53:23 51°23.868 2°29.582 264.7 1 274 33.2
2006-06-08 13:54:23 51°23.865 2°29.541 252.5 1.8 255 33.3
2006-06-08 13:55:23 51°23.847 2°29.502 216.4 1.8 217 33.7
2006-06-08 13:56:23 51°23.82 2°29.495 172.7 1.7 168 33.4
2006-06-08 13:57:23 51°23.797 2°29.525 132 2 124 33
2006-06-08 13:58:23 51°23.78 2°29.57 125.1 1.9 118 33.3
2006-06-08 13:59:23 51°23.768 2°29.608 124.1 1.5 117 33.4
2006-06-08 14:00:23 51°23.758 2°29.639 123.2 1.2 118 33.3
2006-06-08 14:01:23 51°23.75 2°29.663 121.9 0.9 118 33.3
2006-06-08 14:02:23 51°23.744 2°29.683 117.6 0.7 111 33.3
2006-06-08 14:03:23 51°23.741 2°29.699 112.2 0.6 99 33
2006-06-08 14:04:23 51°23.739 2°29.712 106.4 0.5 104 33
2006-06-08 14:05:23 51°23.738 2°29.722 102.1 0.2 110 32.7
2006-06-08 14:06:23 51°23.739 2°29.719 104.8 0.3 287 32.9
2006-06-08 14:07:23 51°23.741 2°29.705 114.9 0.7 289 33.2
2006-06-08 14:08:23 51°23.747 2°29.685 125.4 0.9 300 33.1
2006-06-08 14:09:23 51°23.755 2°29.662 135.1 0.9 301 33.1
2006-06-08 14:10:22 51°23.763 2°29.644 143 0.7 307 33.1
2006-06-08 14:11:23 51°23.769 2°29.63 148.7 0.6 303 33.2
2006-06-08 14:12:23 51°23.774 2°29.618 153.7 0.4 288 33.2
2006-06-08 14:13:23 51°23.776 2°29.607 157.6 0.4 283 33.3
2006-06-08 14:14:23 51°23.777 2°29.599 159 0.3 252 33.3
2006-06-08 14:15:23 51°23.776 2°29.592 158.9 0.3 222 33.2
2006-06-08 14:16:23 51°23.774 2°29.584 158.4 0.4 222 33.1
2006-06-08 14:17:23 51°23.769 2°29.578 157.3 0.4 201 33.2
2006-06-08 14:18:23 51°23.763 2°29.572 155.7 0.5 197 33.1
2006-06-08 14:19:23 51°23.758 2°29.568 152.6 0.4 202 33
2006-06-08 14:20:23 51°23.751 2°29.563 149.2 0.5 196 33
2006-06-08 14:21:23 51°23.743 2°29.56 145.8 0.5 196 33
2006-06-08 14:22:23 51°23.736 2°29.557 142 0.4 191 33
2006-06-08 14:23:23 51°23.727 2°29.561 135 1.1 143 33
2006-06-08 14:24:23 51°23.708 2°29.607 117 2 116 33.1
2006-06-08 14:25:22 51°23.698 2°29.648 109.6 1.5 109 33.3
2006-06-08 14:26:23 51°23.691 2°29.681 107.4 1.2 109 32.8
2006-06-08 14:27:23 51°23.685 2°29.706 107.4 0.9 109 32.4
2006-06-08 14:28:23 51°23.68 2°29.726 105.6 0.8 118 32.5
2006-06-08 14:29:23 51°23.674 2°29.745 106 0.7 119 32.6
2006-06-08 14:30:22 51°23.67 2°29.76 106.5 0.6 117 32.7
2006-06-08 14:31:22 51°23.665 2°29.771 108.3 0.5 130 33
2006-06-08 14:32:23 51°23.66 2°29.779 109.3 0.4 136 32.7
2006-06-08 14:33:23 51°23.655 2°29.786 108.5 0.5 139 32.6
2006-06-08 14:34:22 51°23.629 2°29.864 124.4 6.5 125 32.7
2006-06-08 14:35:23 51°23.501 2°30.013 155.9 11.5 158 32.5
2006-06-08 14:36:22 51°23.3 2°30.047 180.7 12.7 182 32.3
2006-06-08 14:37:23 51°23.082 2°30.012 190.9 13.2 191 32.4
2006-06-08 14:38:23 51°22.866 2°29.954 187.4 13.2 187 32.6
2006-06-08 14:39:23 51°22.649 2°29.967 172.2 13 170 31.7
2006-06-08 14:40:23 51°22.446 2°30.077 156.1 12.8 155 30.8
2006-06-08 14:41:23 51°22.282 2°30.285 137.1 12.6 135 30.6
2006-06-08 14:42:23 51°22.15 2°30.551 127.2 12.6 127 31.2
2006-06-08 14:43:23 51°22.037 2°30.826 121.5 12.5 121 31.9
2006-06-08 14:44:23 51°21.925 2°31.105 125.5 12.4 124 29.9
2006-06-08 14:45:23 51°21.812 2°31.381 124.1 12.3 123 29.7
2006-06-08 14:46:23 51°21.701 2°31.661 121.3 12.4 120 26
2006-06-08 14:47:23 51°21.593 2°31.946 123.3 12.4 121 20.4
2006-06-08 14:48:22 51°21.489 2°32.223 124.5 12.4 123 18.1
2006-06-08 14:49:22 51°21.383 2°32.503 122.4 12.4 122 19.4
2006-06-08 14:50:23 51°21.268 2°32.789 123.3 12.5 121 23.7
2006-06-08 14:51:23 51°21.169 2°33.083 120.6 12.8 120 28.6
2006-06-08 14:52:23 51°21.074 2°33.379 119.6 12.4 117 30.4
2006-06-08 14:53:23 51°20.976 2°33.679 119.1 12.7 116 30.2
2006-06-08 14:54:23 51°20.883 2°33.981 121.5 12.7 119 30
2006-06-08 14:55:23 51°20.779 2°34.274 121.2 12.6 119 30.5
2006-06-08 14:56:23 51°20.681 2°34.566 121.3 12.6 122 29.4
2006-06-08 14:57:23 51°20.584 2°34.861 117.2 12.6 117 29.3
2006-06-08 14:58:23 51°20.485 2°35.155 117.6 12.5 118 27.1
2006-06-08 14:59:23 51°20.39 2°35.448 118.6 12.4 117 20.7
2006-06-08 15:00:23 51°20.304 2°35.743 114.6 12.2 114 17.1
2006-06-08 15:01:23 51°20.216 2°36.036 115.1 12.2 114 17.4
2006-06-08 15:02:22 51°20.13 2°36.326 114.7 12.3 115 20.4
2006-06-08 15:03:23 51°20.085 2°36.642 96.8 12.1 95 20.1
2006-06-08 15:04:23 51°20.05 2°36.958 103 12.1 101 22.1
2006-06-08 15:05:23 51°19.96 2°37.238 130.6 12.3 134 21.1
2006-06-08 15:06:23 51°19.824 2°37.485 126.2 12.4 128 20.4
2006-06-08 15:07:23 51°19.696 2°37.744 126.1 12.4 129 21.2
2006-06-08 15:08:22 51°19.575 2°38.005 125.5 12.5 128 21.2
2006-06-08 15:09:23 51°19.453 2°38.281 123.3 12.5 124 21.7
2006-06-08 15:10:23 51°19.331 2°38.552 125.3 12.6 125 25.4
2006-06-08 15:11:22 51°19.221 2°38.829 123.6 12.6 123 27.1
2006-06-08 15:12:22 51°19.102 2°39.106 123.7 12.7 123 26.8
2006-06-08 15:13:23 51°18.978 2°39.387 125.7 12.7 126 25
2006-06-08 15:14:23 51°18.855 2°39.66 124.7 12.7 126 23.5
2006-06-08 15:15:23 51°18.729 2°39.929 125.7 12.6 127 23.8
2006-06-08 15:16:23 51°18.608 2°40.2 124.8 12.5 128 22.2
2006-06-08 15:17:23 51°18.489 2°40.462 121.2 12 122 14.3
2006-06-08 15:18:23 51°18.37 2°40.722 124 12.2 125 18.8
2006-06-08 15:19:23 51°18.249 2°40.98 124.3 12.1 127 17.2
2006-06-08 15:20:23 51°18.124 2°41.241 126.4 12.4 128 19.7
2006-06-08 15:21:23 51°18 2°41.502 124.8 12.5 129 21.6
2006-06-08 15:22:23 51°17.873 2°41.762 123.2 12.4 126 23
2006-06-08 15:23:23 51°17.747 2°42.024 126.9 12.5 131 23
2006-06-08 15:24:23 51°17.622 2°42.289 122.3 12.4 126 22.4
2006-06-08 15:25:23 51°17.497 2°42.553 125.5 12.4 128 20.4
2006-06-08 15:26:22 51°17.378 2°42.806 122.9 11.9 125 10.8
2006-06-08 15:27:23 51°17.272 2°43.072 119.6 12 124 11.2
2006-06-08 15:28:23 51°17.156 2°43.333 120.3 11.9 125 11.7
2006-06-08 15:29:23 51°17.04 2°43.6 122.8 12.3 127 13.5
2006-06-08 15:30:23 51°16.93 2°43.875 116.2 12.3 120 13.9
2006-06-08 15:31:23 51°16.824 2°44.155 118.1 12.4 121 14.2
2006-06-08 15:32:23 51°16.722 2°44.439 116.5 12.4 118 13.3
2006-06-08 15:33:23 51°16.642 2°44.739 112.2 12.4 115 11.6
2006-06-08 15:34:23 51°16.554 2°45.036 113.7 12.4 117 10.3
2006-06-08 15:35:23 51°16.467 2°45.337 113 12.5 116 10
2006-06-08 15:36:23 51°16.38 2°45.638 111 12.3 113 9.4
2006-06-08 15:37:22 51°16.304 2°45.933 112.7 12.2 116 8.9
2006-06-08 15:38:23 51°16.241 2°46.243 97.5 12.1 98 9.2
2006-06-08 15:39:23 51°16.207 2°46.559 103.4 12.1 106 10.3
2006-06-08 15:40:23 51°16.158 2°46.873 100.7 12.1 102 11.5
2006-06-08 15:41:22 51°16.112 2°47.18 103.5 12.1 105 13.9
2006-06-08 15:42:23 51°16.065 2°47.494 102.4 11.9 104 14.8
2006-06-08 15:43:22 51°16.021 2°47.796 101.2 11.9 103 14.6
2006-06-08 15:44:23 51°15.973 2°48.108 101.1 11.9 102 14.1
2006-06-08 15:45:23 51°15.921 2°48.415 103.9 12.1 106 12.8
2006-06-08 15:46:23 51°15.86 2°48.718 104.8 11.9 107 11
2006-06-08 15:47:23 51°15.802 2°49.021 107.3 12 110 10
2006-06-08 15:48:22 51°15.747 2°49.319 102.3 11.9 104 9.7
2006-06-08 15:49:23 51°15.681 2°49.626 106.6 12.1 108 11.1
2006-06-08 15:50:23 51°15.62 2°49.93 107.5 12.1 110 12
2006-06-08 15:51:22 51°15.563 2°50.229 103.1 11.9 106 11.8
2006-06-08 15:52:23 51°15.497 2°50.536 105.4 11.9 107 11.7
2006-06-08 15:53:23 51°15.436 2°50.838 106.8 12 109 11.7
2006-06-08 15:54:23 51°15.377 2°51.143 105.4 12.1 108 11.5
2006-06-08 15:55:22 51°15.316 2°51.44 103.7 12 106 11.3
2006-06-08 15:56:23 51°15.254 2°51.748 107.5 12.1 109 10.9
2006-06-08 15:57:23 51°15.195 2°52.052 103.3 12 107 10.4
2006-06-08 15:58:23 51°15.132 2°52.353 103.7 11.9 106 9.9
2006-06-08 15:59:23 51°15.074 2°52.653 107 12 111 9.6
2006-06-08 16:00:23 51°15.01 2°52.952 103 11.8 106 9.4
2006-06-08 16:01:23 51°14.944 2°53.25 106.6 11.9 109 8.9
2006-06-08 16:02:23 51°14.886 2°53.552 106.5 11.9 111 8.6
2006-06-08 16:03:23 51°14.829 2°53.85 102.2 11.8 106 8.4
2006-06-08 16:04:23 51°14.744 2°54.134 122.4 12.3 128 8.7
2006-06-08 16:05:22 51°14.631 2°54.396 119.7 12.1 123 9
2006-06-08 16:06:23 51°14.52 2°54.67 118.5 12 120 9
2006-06-08 16:07:23 51°14.413 2°54.939 121.9 11.7 122 9.4
2006-06-08 16:08:23 51°14.311 2°55.173 127.6 9.5 126 9.5
2006-06-08 16:09:23 51°14.227 2°55.325 136.9 7.5 136 9.6
2006-06-08 16:10:22 51°14.124 2°55.42 157.8 7 157 9.7
2006-06-08 16:11:22 51°14.019 2°55.493 157.6 6.8 156 9.7
2006-06-08 16:12:22 51°13.919 2°55.565 159.2 6.5 157 9.8